Terminal Aerodrome Forecast
Issued by NWS Charleston, WV

Current Version | Previous Version | Graphics & Text | Print | Product List | Glossary Off
Versions: 1 2 3 4 5 6 7 8 9 10 11 12 13 14 15 16 17 18 19 20 21 22 23 24 25 26 27 28 29 30 31 32 33

000
FTUS41 KRLX 031751 CCA
TAFBKW
TAF COR
KBKW 031751Z 0318/0418 20003KT 5SM SHRA VCTS BKN015CB OVC060
     FM040000 25005KT 6SM BR BKN010
     FM040200 24006KT 3SM BR OVC004
     FM041500 25006KT P6SM BKN008
     FM041600 26006KT P6SM BKN015=

USA.gov is the U.S. government's official web portal to all federal, state and local government web resources and services.